UAE176 EBCI-ELLX
Flight info
| Callsign | UAE176 |
|---|---|
| Flight time | N/A |
| Altitude | 15000 |
| Route | RITAX |
| Aircraft | A359/H-SDE2E3GHIJ3J4J5LM1ORWXY/LB1D1 |
Departure
| Time | 2026-04-29 19:06 |
|---|---|
| Airport | Brussels South Charleroi Airport (EBCI) |
Arrival
| Time | N/A |
|---|---|
| Airport | Luxembourg-Findel International Airport (ELLX) |
| Time | Latitude | Longitude | Altitude | Speed | Heading |
|---|---|---|---|---|---|
| 2026-04-29 18:45 | 50.45871 | 4.45479 | 641 ft | 0 kts | 65° |
| 2026-04-29 18:46 | 50.45870 | 4.45479 | 641 ft | 0 kts | 65° |
| 2026-04-29 18:52 | 50.45869 | 4.45479 | 641 ft | 0 kts | 65° |
| 2026-04-29 18:56 | 50.45880 | 4.45500 | 639 ft | 0 kts | 51° |
| 2026-04-29 18:56 | 50.45899 | 4.45568 | 640 ft | 24 kts | 58° |
| 2026-04-29 18:56 | 50.45968 | 4.45666 | 637 ft | 13 kts | 51° |
| 2026-04-29 18:57 | 50.46016 | 4.45805 | 639 ft | 16 kts | 66° |
| 2026-04-29 18:57 | 50.46050 | 4.45983 | 634 ft | 18 kts | 77° |
| 2026-04-29 18:57 | 50.46098 | 4.46181 | 635 ft | 20 kts | 56° |
| 2026-04-29 18:57 | 50.46113 | 4.46206 | 637 ft | 0 kts | 43° |
| 2026-04-29 18:58 | 50.46116 | 4.46210 | 637 ft | 3 kts | 40° |
| 2026-04-29 18:58 | 50.46136 | 4.46228 | 630 ft | 0 kts | 23° |
| 2026-04-29 18:59 | 50.46142 | 4.46230 | 634 ft | 4 kts | 17° |
| 2026-04-29 18:59 | 50.46194 | 4.46218 | 633 ft | 12 kts | 338° |
| 2026-04-29 18:59 | 50.46293 | 4.46145 | 636 ft | 18 kts | 334° |
| 2026-04-29 18:59 | 50.46325 | 4.46121 | 633 ft | 0 kts | 335° |
| 2026-04-29 19:00 | 50.46331 | 4.46116 | 624 ft | 3 kts | 335° |
| 2026-04-29 19:00 | 50.46363 | 4.46075 | 634 ft | 9 kts | 306° |
| 2026-04-29 19:00 | 50.46359 | 4.45960 | 635 ft | 14 kts | 249° |
| 2026-04-29 19:00 | 50.46312 | 4.45793 | 635 ft | 20 kts | 247° |
| 2026-04-29 19:01 | 50.46247 | 4.45560 | 635 ft | 26 kts | 246° |
| 2026-04-29 19:01 | 50.46167 | 4.45286 | 635 ft | 21 kts | 245° |
| 2026-04-29 19:01 | 50.46127 | 4.45154 | 641 ft | 14 kts | 246° |
| 2026-04-29 19:01 | 50.46079 | 4.44987 | 642 ft | 20 kts | 245° |
| 2026-04-29 19:02 | 50.46013 | 4.44758 | 643 ft | 26 kts | 246° |
| 2026-04-29 19:02 | 50.45959 | 4.44577 | 641 ft | 29 kts | 244° |
| 2026-04-29 19:02 | 50.45944 | 4.44532 | 637 ft | 0 kts | 242° |
| 2026-04-29 19:02 | 50.45937 | 4.44511 | 643 ft | 5 kts | 242° |
| 2026-04-29 19:03 | 50.45909 | 4.44436 | 643 ft | 11 kts | 238° |
| 2026-04-29 19:03 | 50.45849 | 4.44309 | 646 ft | 18 kts | 232° |
| 2026-04-29 19:03 | 50.45782 | 4.44174 | 648 ft | 0 kts | 232° |
| 2026-04-29 19:04 | 50.45781 | 4.44172 | 648 ft | 1 kts | 232° |
| 2026-04-29 19:04 | 50.45738 | 4.44085 | 642 ft | 18 kts | 232° |
| 2026-04-29 19:04 | 50.45656 | 4.44001 | 645 ft | 14 kts | 167° |
| 2026-04-29 19:05 | 50.45645 | 4.44107 | 647 ft | 12 kts | 66° |
| 2026-04-29 19:05 | 50.45647 | 4.44114 | 647 ft | 0 kts | 66° |
| 2026-04-29 19:05 | 50.45649 | 4.44121 | 646 ft | 8 kts | 66° |
| 2026-04-29 19:06 | 50.45837 | 4.44771 | 644 ft | 127 kts | 65° |
| 2026-04-29 19:06 | 50.46347 | 4.46524 | 887 ft | 212 kts | 65° |
| 2026-04-29 19:06 | 50.48308 | 4.50953 | 3023 ft | 297 kts | 52° |
| 2026-04-29 19:07 | 50.49772 | 4.53574 | 3624 ft | 315 kts | 52° |
| 2026-04-29 19:07 | 50.50709 | 4.55242 | 3885 ft | 287 kts | 52° |
| 2026-04-29 19:07 | 50.52325 | 4.58171 | 4018 ft | 251 kts | 54° |
| 2026-04-29 19:07 | 50.53422 | 4.60240 | 4002 ft | 243 kts | 56° |
| 2026-04-29 19:08 | 50.54440 | 4.62305 | 3992 ft | 243 kts | 57° |
| 2026-04-29 19:08 | 50.55481 | 4.64442 | 3989 ft | 243 kts | 57° |
| 2026-04-29 19:08 | 50.56508 | 4.66546 | 4062 ft | 242 kts | 56° |
| 2026-04-29 19:08 | 50.57552 | 4.68678 | 4633 ft | 249 kts | 56° |
| 2026-04-29 19:09 | 50.58615 | 4.70845 | 5521 ft | 252 kts | 56° |
| 2026-04-29 19:09 | 50.59643 | 4.73066 | 6352 ft | 255 kts | 62° |
| 2026-04-29 19:09 | 50.60338 | 4.75628 | 7158 ft | 256 kts | 78° |
| 2026-04-29 19:09 | 50.60412 | 4.78412 | 8018 ft | 256 kts | 99° |
| 2026-04-29 19:10 | 50.59732 | 4.81009 | 8881 ft | 261 kts | 121° |
| 2026-04-29 19:10 | 50.58630 | 4.83317 | 9704 ft | 267 kts | 126° |
| 2026-04-29 19:10 | 50.57437 | 4.85615 | 10495 ft | 273 kts | 126° |
| 2026-04-29 19:10 | 50.56226 | 4.87944 | 11227 ft | 278 kts | 126° |
| 2026-04-29 19:11 | 50.55012 | 4.90289 | 11953 ft | 282 kts | 125° |
| 2026-04-29 19:11 | 50.53764 | 4.92708 | 12721 ft | 287 kts | 126° |
| 2026-04-29 19:11 | 50.52497 | 4.95167 | 13464 ft | 292 kts | 126° |
| 2026-04-29 19:11 | 50.51208 | 4.97668 | 14177 ft | 297 kts | 125° |
| 2026-04-29 19:12 | 50.49903 | 5.00199 | 14712 ft | 299 kts | 125° |
| 2026-04-29 19:12 | 50.48584 | 5.02755 | 14945 ft | 301 kts | 125° |
| 2026-04-29 19:12 | 50.47261 | 5.05318 | 15002 ft | 303 kts | 125° |
| 2026-04-29 19:12 | 50.46814 | 5.06184 | 15026 ft | 303 kts | 126° |
| 2026-04-29 19:13 | 50.44591 | 5.10482 | 15247 ft | 305 kts | 125° |
| 2026-04-29 19:13 | 50.43251 | 5.13073 | 15247 ft | 306 kts | 125° |
| 2026-04-29 19:13 | 50.41908 | 5.15664 | 15244 ft | 307 kts | 125° |
| 2026-04-29 19:13 | 50.40577 | 5.18230 | 15251 ft | 307 kts | 125° |
| 2026-04-29 19:14 | 50.39232 | 5.20821 | 15244 ft | 307 kts | 125° |
| 2026-04-29 19:14 | 50.37852 | 5.23483 | 15222 ft | 330 kts | 125° |
| 2026-04-29 19:14 | 50.36336 | 5.26415 | 15223 ft | 358 kts | 126° |
| 2026-04-29 19:14 | 50.34743 | 5.29477 | 15241 ft | 366 kts | 126° |
| 2026-04-29 19:15 | 50.33124 | 5.32572 | 15243 ft | 368 kts | 126° |
| 2026-04-29 19:15 | 50.31504 | 5.35668 | 15252 ft | 367 kts | 126° |
| 2026-04-29 19:15 | 50.29878 | 5.38773 | 15252 ft | 367 kts | 126° |
| 2026-04-29 19:15 | 50.28257 | 5.41868 | 15249 ft | 368 kts | 126° |
| 2026-04-29 19:16 | 50.26612 | 5.44938 | 15249 ft | 369 kts | 129° |
| 2026-04-29 19:16 | 50.24712 | 5.47665 | 15249 ft | 373 kts | 138° |
| 2026-04-29 19:16 | 50.23314 | 5.49251 | 15249 ft | 374 kts | 143° |
| 2026-04-29 19:16 | 50.20245 | 5.51877 | 15259 ft | 378 kts | 153° |
| 2026-04-29 19:17 | 50.18625 | 5.52877 | 15250 ft | 380 kts | 158° |
| 2026-04-29 19:17 | 50.15291 | 5.54547 | 15048 ft | 374 kts | 159° |
| 2026-04-29 19:17 | 50.12825 | 5.55813 | 14355 ft | 373 kts | 159° |
| 2026-04-29 19:17 | 50.10365 | 5.57086 | 13642 ft | 371 kts | 159° |
| 2026-04-29 19:18 | 50.07943 | 5.58378 | 12963 ft | 365 kts | 156° |
| 2026-04-29 19:18 | 50.07135 | 5.58833 | 12739 ft | 364 kts | 157° |
| 2026-04-29 19:18 | 50.04083 | 5.60836 | 11899 ft | 355 kts | 150° |
| 2026-04-29 19:18 | 50.01895 | 5.62559 | 11264 ft | 349 kts | 149° |
| 2026-04-29 19:19 | 49.99746 | 5.64279 | 10646 ft | 345 kts | 149° |
| 2026-04-29 19:19 | 49.97615 | 5.65985 | 10190 ft | 343 kts | 149° |
| 2026-04-29 19:19 | 49.95493 | 5.67683 | 10002 ft | 343 kts | 149° |
| 2026-04-29 19:19 | 49.93374 | 5.69378 | 9991 ft | 342 kts | 149° |
| 2026-04-29 19:20 | 49.91428 | 5.71430 | 9982 ft | 336 kts | 131° |
| 2026-04-29 19:20 | 49.89868 | 5.74118 | 9981 ft | 336 kts | 131° |
| 2026-04-29 19:20 | 49.88012 | 5.76351 | 9986 ft | 341 kts | 146° |
| 2026-04-29 19:20 | 49.85927 | 5.78103 | 9951 ft | 339 kts | 149° |
| 2026-04-29 19:21 | 49.83889 | 5.79730 | 9367 ft | 332 kts | 149° |
| 2026-04-29 19:21 | 49.81795 | 5.81346 | 8548 ft | 332 kts | 153° |
| 2026-04-29 19:21 | 49.79661 | 5.82599 | 7852 ft | 331 kts | 159° |
| 2026-04-29 19:21 | 49.77537 | 5.83626 | 7817 ft | 305 kts | 160° |
| 2026-04-29 19:22 | 49.75617 | 5.84539 | 7848 ft | 273 kts | 159° |
| 2026-04-29 19:22 | 49.73890 | 5.85357 | 7761 ft | 246 kts | 159° |
| 2026-04-29 19:22 | 49.72317 | 5.86103 | 7192 ft | 229 kts | 159° |
| 2026-04-29 19:22 | 49.70817 | 5.86817 | 6432 ft | 223 kts | 158° |
| 2026-04-29 19:23 | 49.69346 | 5.87518 | 5600 ft | 220 kts | 157° |
| 2026-04-29 19:23 | 49.67911 | 5.88195 | 5036 ft | 207 kts | 155° |
| 2026-04-29 19:23 | 49.66584 | 5.88819 | 4551 ft | 194 kts | 155° |
| 2026-04-29 19:23 | 49.65310 | 5.89423 | 3958 ft | 190 kts | 154° |
| 2026-04-29 19:24 | 49.64062 | 5.90015 | 3496 ft | 183 kts | 154° |
| 2026-04-29 19:24 | 49.62864 | 5.90580 | 3099 ft | 177 kts | 153° |
| 2026-04-29 19:24 | 49.61683 | 5.91144 | 2980 ft | 178 kts | 153° |
| 2026-04-29 19:24 | 49.60486 | 5.91718 | 2980 ft | 184 kts | 153° |
| 2026-04-29 19:25 | 49.59254 | 5.92310 | 2993 ft | 186 kts | 154° |
| 2026-04-29 19:25 | 49.58050 | 5.92882 | 2990 ft | 177 kts | 154° |
| 2026-04-29 19:25 | 49.56895 | 5.93423 | 2988 ft | 171 kts | 153° |
| 2026-04-29 19:25 | 49.55830 | 5.94121 | 2988 ft | 162 kts | 134° |
| 2026-04-29 19:26 | 49.55298 | 5.95515 | 2991 ft | 150 kts | 98° |
| 2026-04-29 19:26 | 49.55191 | 5.97100 | 2992 ft | 148 kts | 92° |
| 2026-04-29 19:26 | 49.55137 | 5.98684 | 2983 ft | 148 kts | 91° |
| 2026-04-29 19:26 | 49.55135 | 6.00255 | 2975 ft | 146 kts | 82° |
| 2026-04-29 19:27 | 49.55463 | 6.01728 | 2986 ft | 147 kts | 64° |
| 2026-04-29 19:27 | 49.55991 | 6.03079 | 2989 ft | 147 kts | 65° |
| 2026-04-29 19:27 | 49.56491 | 6.04455 | 2987 ft | 147 kts | 64° |
| 2026-04-29 19:27 | 49.56992 | 6.05824 | 2995 ft | 147 kts | 65° |
| 2026-04-29 19:28 | 49.57493 | 6.07212 | 2952 ft | 148 kts | 65° |
| 2026-04-29 19:28 | 49.57971 | 6.08529 | 2781 ft | 132 kts | 66° |
| 2026-04-29 19:28 | 49.58402 | 6.09690 | 2581 ft | 119 kts | 66° |
| 2026-04-29 19:28 | 49.58804 | 6.10779 | 2417 ft | 116 kts | 64° |
| 2026-04-29 19:29 | 49.59211 | 6.11880 | 2259 ft | 119 kts | 63° |
| 2026-04-29 19:29 | 49.59617 | 6.12971 | 2097 ft | 119 kts | 62° |
| 2026-04-29 19:29 | 49.60034 | 6.14094 | 1908 ft | 122 kts | 62° |
| 2026-04-29 19:29 | 49.60462 | 6.15252 | 1737 ft | 124 kts | 61° |
| 2026-04-29 19:30 | 49.60879 | 6.16372 | 1576 ft | 123 kts | 60° |
| 2026-04-29 19:30 | 49.61315 | 6.17549 | 1443 ft | 128 kts | 62° |
| 2026-04-29 19:30 | 49.61768 | 6.18769 | 1257 ft | 132 kts | 61° |
| 2026-04-29 19:30 | 49.62284 | 6.20143 | 1407 ft | 156 kts | 60° |
| 2026-04-29 19:31 | 49.62915 | 6.21852 | 1862 ft | 212 kts | 61° |